Terminal Aerodrome Forecast
Issued by NWS

Home | Current Version | Previous Version | Text Only | Print | Product List | Glossary On
Versions: 1 2 3 4 5 6 7 8 9 10 11 12 13 14
000
FTUS46 KSTO 152338
TAFSCK
TAF
KSCK 152338Z 1600/1624 27005KT 6SM BR SCT250
     FM161600 31015KT 4SM BR SKC
     FM161700 32020G28KT 6SM BR SKC
     FM162000 32024G35KT 4SM HZ SKC=

USA.gov is the U.S. government's official web portal to all federal, state and local government web resources and services.